This is the latest recevied weather packets stored in our database for station/object N0NB. If no packets are shown the sender has not sent any weather packets the latest 1 day(s).
| Time | Temp. | Humidity | Pressure | Rain* | Wind** | Luminosity | Snow |
|---|---|---|---|---|---|---|---|
| 1836274690 | 18.33° C | 79% | 1014.8 hPa | 0 mm | 0.45 m/s, 68° | 0 W/m² | - |
| 1836274540 | 18.33° C | 81% | 1014.7 hPa | 0 mm | 0.45 m/s, 68° | 0 W/m² | - |
| 1778056817 | 8.33° C | 61% | 1015.1 hPa | 0 mm | 0.45 m/s, 338° | 0 W/m² | - |
| 1778055017 | 8.33° C | 55% | 1014.9 hPa | 0 mm | 0.45 m/s, 90° | 0 W/m² | - |
| 1778050216 | 9.44° C | 53% | 1014.7 hPa | 0 mm | 0.89 m/s, 23° | 0 W/m² | - |
| 1778049616 | 9.44° C | 51% | 1014.4 hPa | 0 mm | 0.45 m/s, 23° | 0 W/m² | - |
| 1778049016 | 9.44° C | 50% | 1014.5 hPa | 0 mm | 0.45 m/s, 45° | 0 W/m² | - |
| 1778048416 | 9.44° C | 51% | 1014.3 hPa | 0 mm | 0.45 m/s, 45° | 0 W/m² | - |
| 1778047816 | 9.44° C | 51% | 1014.3 hPa | 0 mm | 0.45 m/s, 45° | 0 W/m² | - |
| 1778047216 | 10° C | 50% | 1014.1 hPa | 0 mm | 0.89 m/s, 45° | 0 W/m² | - |
| 1778046616 | 10° C | 51% | 1014 hPa | 0 mm | 0.89 m/s, 68° | 0 W/m² | - |
| 1778046016 | 10° C | 52% | 1013.8 hPa | 0 mm | 0.89 m/s, 45° | 0 W/m² | - |
| 1778045416 | 9.44° C | 53% | 1013.9 hPa | 0 mm | 0.89 m/s, 45° | 0 W/m² | - |
| 1778044816 | 9.44° C | 56% | 1013.7 hPa | 0 mm | 0.45 m/s, 45° | 0 W/m² | - |
| 1778044216 | 9.44° C | 56% | 1013.5 hPa | 0 mm | 0.45 m/s, 45° | 0 W/m² | - |
| 1778043616 | 9.44° C | 59% | 1013.7 hPa | 0 mm | 0.45 m/s, 0° | 0 W/m² | - |
| 1778039417 | 10° C | 56% | 1013.9 hPa | 0 mm | 0.45 m/s, 0° | 0 W/m² | - |
| 1778038817 | 9.44° C | 61% | 1013.9 hPa | 0 mm | 0.89 m/s, 45° | 0 W/m² | - |
| 1778036417 | 10° C | 61% | 1012.7 hPa | 0 mm | 0.45 m/s, 45° | 0 W/m² | - |
| 1778029816 | 12.22° C | 45% | 1011.4 hPa | 0 mm | 0.45 m/s, 45° | 0 W/m² | - |
| 1778029217 | 12.22° C | 44% | 1011.2 hPa | 0 mm | 0.45 m/s, 45° | 6 W/m² | - |
| 1778028616 | 12.78° C | 44% | 1011.3 hPa | 0 mm | 0.89 m/s, 0° | 9 W/m² | - |
| 1778028016 | 12.78° C | 45% | 1011 hPa | 0 mm | 0.89 m/s, 0° | 18 W/m² | - |
| 1778027416 | 12.78° C | 44% | 1010.9 hPa | 0 mm | 0.89 m/s, 0° | 46 W/m² | - |
| 1778026816 | 12.78° C | 44% | 1010.8 hPa | 0 mm | 0.89 m/s, 0° | 50 W/m² | - |
* Rain latest hour (hover to see other rain measurements)
** Current wind speed in m/s (hover to see current wind gust speed)